sensor_id;sensor_type;location;lat;lon;timestamp;pressure;altitude;pressure_sealevel;temperature
40199;BMP280;25906;43.536;26.068;2023-04-15T00:01:47;98110.09;;;12.01
40199;BMP280;25906;43.536;26.068;2023-04-15T00:04:33;98070.59;;;12.03
40199;BMP280;25906;43.536;26.068;2023-04-15T00:07:18;98082.22;;;12.05
40199;BMP280;25906;43.536;26.068;2023-04-15T00:10:04;98087.34;;;12.18
40199;BMP280;25906;43.536;26.068;2023-04-15T00:12:50;98086.16;;;12.28
40199;BMP280;25906;43.536;26.068;2023-04-15T00:15:36;98080.88;;;12.19
40199;BMP280;25906;43.536;26.068;2023-04-15T00:18:23;98096.19;;;12.24
40199;BMP280;25906;43.536;26.068;2023-04-15T00:21:08;98106.03;;;12.24
40199;BMP280;25906;43.536;26.068;2023-04-15T00:23:54;98096.19;;;12.24
40199;BMP280;25906;43.536;26.068;2023-04-15T00:26:39;98094.38;;;12.30
40199;BMP280;25906;43.536;26.068;2023-04-15T00:29:25;98098.94;;;12.30
40199;BMP280;25906;43.536;26.068;2023-04-15T00:32:10;98104.44;;;12.26
40199;BMP280;25906;43.536;26.068;2023-04-15T00:34:55;98103.56;;;12.20
40199;BMP280;25906;43.536;26.068;2023-04-15T00:37:41;98114.78;;;12.06
40199;BMP280;25906;43.536;26.068;2023-04-15T00:40:27;98120.50;;;12.04
40199;BMP280;25906;43.536;26.068;2023-04-15T00:43:12;98119.81;;;11.95
40199;BMP280;25906;43.536;26.068;2023-04-15T00:45:58;98119.53;;;11.93
40199;BMP280;25906;43.536;26.068;2023-04-15T00:48:45;98119.81;;;11.86
40199;BMP280;25906;43.536;26.068;2023-04-15T00:51:32;98118.91;;;11.98
40199;BMP280;25906;43.536;26.068;2023-04-15T00:54:20;98117.16;;;11.95
40199;BMP280;25906;43.536;26.068;2023-04-15T00:57:06;98105.09;;;11.94
40199;BMP280;25906;43.536;26.068;2023-04-15T00:59:52;98100.94;;;12.02
40199;BMP280;25906;43.536;26.068;2023-04-15T01:02:38;98111.38;;;11.96
40199;BMP280;25906;43.536;26.068;2023-04-15T01:05:23;98099.16;;;11.90
40199;BMP280;25906;43.536;26.068;2023-04-15T01:08:09;98093.13;;;11.89
40199;BMP280;25906;43.536;26.068;2023-04-15T01:10:56;98096.53;;;11.90
40199;BMP280;25906;43.536;26.068;2023-04-15T01:13:42;98121.72;;;11.94
40199;BMP280;25906;43.536;26.068;2023-04-15T01:16:27;98131.59;;;11.94
40199;BMP280;25906;43.536;26.068;2023-04-15T01:19:15;98124.22;;;11.89
40199;BMP280;25906;43.536;26.068;2023-04-15T01:22:02;98128.53;;;11.86
40199;BMP280;25906;43.536;26.068;2023-04-15T01:25:01;98128.31;;;11.81
40199;BMP280;25906;43.536;26.068;2023-04-15T01:27:50;98112.16;;;11.70
40199;BMP280;25906;43.536;26.068;2023-04-15T01:30:35;98101.56;;;11.79
40199;BMP280;25906;43.536;26.068;2023-04-15T01:33:21;98105.69;;;11.71
40199;BMP280;25906;43.536;26.068;2023-04-15T01:36:07;98113.34;;;11.69
40199;BMP280;25906;43.536;26.068;2023-04-15T01:38:55;98109.50;;;11.70
40199;BMP280;25906;43.536;26.068;2023-04-15T01:41:41;98118.34;;;11.76
40199;BMP280;25906;43.536;26.068;2023-04-15T01:44:26;98129.97;;;11.87
40199;BMP280;25906;43.536;26.068;2023-04-15T01:47:12;98128.06;;;11.61
40199;BMP280;25906;43.536;26.068;2023-04-15T01:49:57;98117.13;;;11.58
40199;BMP280;25906;43.536;26.068;2023-04-15T01:52:43;98090.94;;;11.51
40199;BMP280;25906;43.536;26.068;2023-04-15T01:55:28;98095.38;;;11.54
40199;BMP280;25906;43.536;26.068;2023-04-15T01:58:15;98090.53;;;11.62
40199;BMP280;25906;43.536;26.068;2023-04-15T02:01:00;98083.75;;;11.61
40199;BMP280;25906;43.536;26.068;2023-04-15T02:03:47;98079.47;;;11.54
40199;BMP280;25906;43.536;26.068;2023-04-15T02:06:32;98075.78;;;11.43
40199;BMP280;25906;43.536;26.068;2023-04-15T02:09:18;98089.03;;;11.43
40199;BMP280;25906;43.536;26.068;2023-04-15T02:12:03;98088.00;;;11.49
40199;BMP280;25906;43.536;26.068;2023-04-15T02:14:49;98088.44;;;11.57
40199;BMP280;25906;43.536;26.068;2023-04-15T02:17:35;98103.78;;;11.62
40199;BMP280;25906;43.536;26.068;2023-04-15T02:20:21;98112.56;;;11.59
40199;BMP280;25906;43.536;26.068;2023-04-15T02:23:07;98108.03;;;11.60
40199;BMP280;25906;43.536;26.068;2023-04-15T02:25:52;98105.06;;;11.67
40199;BMP280;25906;43.536;26.068;2023-04-15T02:28:38;98095.06;;;11.62
40199;BMP280;25906;43.536;26.068;2023-04-15T02:31:24;98064.31;;;11.55
40199;BMP280;25906;43.536;26.068;2023-04-15T02:34:09;98042.06;;;11.62
40199;BMP280;25906;43.536;26.068;2023-04-15T02:36:55;98031.47;;;11.52
40199;BMP280;25906;43.536;26.068;2023-04-15T02:39:41;98068.13;;;11.54
40199;BMP280;25906;43.536;26.068;2023-04-15T02:42:27;98083.44;;;11.59
40199;BMP280;25906;43.536;26.068;2023-04-15T02:45:14;98101.97;;;11.59
40199;BMP280;25906;43.536;26.068;2023-04-15T02:48:00;98106.41;;;11.62
40199;BMP280;25906;43.536;26.068;2023-04-15T02:50:50;98126.13;;;11.61
40199;BMP280;25906;43.536;26.068;2023-04-15T02:53:35;98132.19;;;11.62
40199;BMP280;25906;43.536;26.068;2023-04-15T02:56:20;98117.88;;;11.50
40199;BMP280;25906;43.536;26.068;2023-04-15T02:59:07;98118.59;;;11.41
40199;BMP280;25906;43.536;26.068;2023-04-15T03:01:52;98116.97;;;11.44
40199;BMP280;25906;43.536;26.068;2023-04-15T03:04:39;98114.63;;;11.28
40199;BMP280;25906;43.536;26.068;2023-04-15T03:07:25;98109.72;;;11.17
40199;BMP280;25906;43.536;26.068;2023-04-15T03:10:10;98114.28;;;11.17
40199;BMP280;25906;43.536;26.068;2023-04-15T03:12:56;98122.69;;;11.24
40199;BMP280;25906;43.536;26.068;2023-04-15T03:15:41;98140.09;;;11.34
40199;BMP280;25906;43.536;26.068;2023-04-15T03:18:26;98138.75;;;11.30
40199;BMP280;25906;43.536;26.068;2023-04-15T03:21:13;98140.69;;;11.38
40199;BMP280;25906;43.536;26.068;2023-04-15T03:23:58;98135.06;;;11.36
40199;BMP280;25906;43.536;26.068;2023-04-15T03:26:44;98150.09;;;11.48
40199;BMP280;25906;43.536;26.068;2023-04-15T03:29:29;98144.78;;;11.30
40199;BMP280;25906;43.536;26.068;2023-04-15T03:32:14;98154.66;;;11.39
40199;BMP280;25906;43.536;26.068;2023-04-15T03:35:00;98150.09;;;11.39
40199;BMP280;25906;43.536;26.068;2023-04-15T03:37:46;98162.47;;;11.42
40199;BMP280;25906;43.536;26.068;2023-04-15T03:40:34;98163.34;;;11.39
40199;BMP280;25906;43.536;26.068;2023-04-15T03:43:19;98147.16;;;11.37
40199;BMP280;25906;43.536;26.068;2023-04-15T03:46:05;98145.66;;;11.36
40199;BMP280;25906;43.536;26.068;2023-04-15T03:48:50;98152.13;;;11.35
40199;BMP280;25906;43.536;26.068;2023-04-15T03:51:36;98139.34;;;11.34
40199;BMP280;25906;43.536;26.068;2023-04-15T03:54:21;98133.91;;;11.37
40199;BMP280;25906;43.536;26.068;2023-04-15T03:57:07;98135.06;;;11.27
40199;BMP280;25906;43.536;26.068;2023-04-15T03:59:52;98123.00;;;11.26
40199;BMP280;25906;43.536;26.068;2023-04-15T04:02:37;98127.41;;;11.29
40199;BMP280;25906;43.536;26.068;2023-04-15T04:05:23;98132.13;;;11.34
40199;BMP280;25906;43.536;26.068;2023-04-15T04:08:09;98135.06;;;11.27
40199;BMP280;25906;43.536;26.068;2023-04-15T04:10:54;98129.19;;;11.23
40199;BMP280;25906;43.536;26.068;2023-04-15T04:13:40;98135.06;;;11.27
40199;BMP280;25906;43.536;26.068;2023-04-15T04:16:25;98146.56;;;11.42
40199;BMP280;25906;43.536;26.068;2023-04-15T04:19:11;98153.22;;;11.47
40199;BMP280;25906;43.536;26.068;2023-04-15T04:21:56;98154.06;;;11.44
40199;BMP280;25906;43.536;26.068;2023-04-15T04:24:42;98156.28;;;11.45
40199;BMP280;25906;43.536;26.068;2023-04-15T04:27:27;98181.78;;;11.61
40199;BMP280;25906;43.536;26.068;2023-04-15T04:30:12;98186.50;;;11.66
40199;BMP280;25906;43.536;26.068;2023-04-15T04:32:58;98188.16;;;11.64
40199;BMP280;25906;43.536;26.068;2023-04-15T04:35:43;98189.16;;;11.75
40199;BMP280;25906;43.536;26.068;2023-04-15T04:38:29;98189.06;;;11.79
40199;BMP280;25906;43.536;26.068;2023-04-15T04:41:14;98173.59;;;11.86
40199;BMP280;25906;43.536;26.068;2023-04-15T04:44:00;98179.44;;;11.90
40199;BMP280;25906;43.536;26.068;2023-04-15T04:46:45;98198.75;;;12.09
40199;BMP280;25906;43.536;26.068;2023-04-15T04:49:30;98206.13;;;12.14
40199;BMP280;25906;43.536;26.068;2023-04-15T04:52:16;98201.41;;;12.27
40199;BMP280;25906;43.536;26.068;2023-04-15T04:55:02;98200.69;;;12.18
40199;BMP280;25906;43.536;26.068;2023-04-15T04:57:47;98194.50;;;12.02
40199;BMP280;25906;43.536;26.068;2023-04-15T05:00:32;98200.53;;;12.03
40199;BMP280;25906;43.536;26.068;2023-04-15T05:03:18;98204.81;;;12.19
40199;BMP280;25906;43.536;26.068;2023-04-15T05:06:03;98205.81;;;12.30
40199;BMP280;25906;43.536;26.068;2023-04-15T05:08:51;98198.59;;;12.40
40199;BMP280;25906;43.536;26.068;2023-04-15T05:11:36;98197.59;;;12.19
40199;BMP280;25906;43.536;26.068;2023-04-15T05:14:22;98192.00;;;12.08
40199;BMP280;25906;43.536;26.068;2023-04-15T05:17:07;98205.69;;;12.34
40199;BMP280;25906;43.536;26.068;2023-04-15T05:19:53;98230.56;;;12.54
40199;BMP280;25906;43.536;26.068;2023-04-15T05:22:38;98242.03;;;12.61
40199;BMP280;25906;43.536;26.068;2023-04-15T05:25:24;98250.28;;;12.72
40199;BMP280;25906;43.536;26.068;2023-04-15T05:28:09;98256.59;;;12.83
40199;BMP280;25906;43.536;26.068;2023-04-15T05:30:54;98258.25;;;12.81
40199;BMP280;25906;43.536;26.068;2023-04-15T05:33:40;98265.31;;;12.84
40199;BMP280;25906;43.536;26.068;2023-04-15T05:36:25;98265.16;;;12.87
40199;BMP280;25906;43.536;26.068;2023-04-15T05:39:12;98254.84;;;12.71
40199;BMP280;25906;43.536;26.068;2023-04-15T05:41:57;98240.56;;;12.69
40199;BMP280;25906;43.536;26.068;2023-04-15T05:44:43;98241.13;;;12.82
40199;BMP280;25906;43.536;26.068;2023-04-15T05:47:29;98241.25;;;12.78
40199;BMP280;25906;43.536;26.068;2023-04-15T05:50:15;98243.38;;;13.07
40199;BMP280;25906;43.536;26.068;2023-04-15T05:53:00;98268.59;;;13.21
40199;BMP280;25906;43.536;26.068;2023-04-15T05:55:46;98269.16;;;13.25
40199;BMP280;25906;43.536;26.068;2023-04-15T05:58:31;98271.56;;;13.23
40199;BMP280;25906;43.536;26.068;2023-04-15T06:01:17;98258.50;;;13.34
40199;BMP280;25906;43.536;26.068;2023-04-15T06:04:02;98246.34;;;13.42
40199;BMP280;25906;43.536;26.068;2023-04-15T06:06:47;98242.53;;;13.67
40199;BMP280;25906;43.536;26.068;2023-04-15T06:09:33;98244.28;;;13.70
40199;BMP280;25906;43.536;26.068;2023-04-15T06:12:18;98245.06;;;13.85
40199;BMP280;25906;43.536;26.068;2023-04-15T06:15:04;98247.13;;;13.81
40199;BMP280;25906;43.536;26.068;2023-04-15T06:17:50;98262.50;;;13.86
40199;BMP280;25906;43.536;26.068;2023-04-15T06:20:36;98279.50;;;14.03
40199;BMP280;25906;43.536;26.068;2023-04-15T06:23:22;98285.84;;;14.05
40199;BMP280;25906;43.536;26.068;2023-04-15T06:26:08;98285.09;;;14.43
40199;BMP280;25906;43.536;26.068;2023-04-15T06:28:53;98289.13;;;14.53
40199;BMP280;25906;43.536;26.068;2023-04-15T06:31:38;98282.25;;;14.62
40199;BMP280;25906;43.536;26.068;2023-04-15T06:34:24;98275.28;;;14.93
40199;BMP280;25906;43.536;26.068;2023-04-15T06:37:09;98270.66;;;14.94
40199;BMP280;25906;43.536;26.068;2023-04-15T06:39:59;98258.44;;;15.02
40199;BMP280;25906;43.536;26.068;2023-04-15T06:42:45;98263.28;;;15.18
40199;BMP280;25906;43.536;26.068;2023-04-15T06:45:30;98273.63;;;15.31
40199;BMP280;25906;43.536;26.068;2023-04-15T06:48:16;98282.09;;;15.29
40199;BMP280;25906;43.536;26.068;2023-04-15T06:51:02;98285.28;;;15.68
40199;BMP280;25906;43.536;26.068;2023-04-15T06:53:48;98282.69;;;15.53
40199;BMP280;25906;43.536;26.068;2023-04-15T06:56:33;98286.28;;;15.71
40199;BMP280;25906;43.536;26.068;2023-04-15T06:59:19;98281.03;;;15.61
40199;BMP280;25906;43.536;26.068;2023-04-15T07:02:04;98275.56;;;16.11
40199;BMP280;25906;43.536;26.068;2023-04-15T07:04:50;98283.16;;;16.18
40199;BMP280;25906;43.536;26.068;2023-04-15T07:07:35;98283.44;;;16.20
40199;BMP280;25906;43.536;26.068;2023-04-15T07:10:20;98282.75;;;16.25
40199;BMP280;25906;43.536;26.068;2023-04-15T07:13:06;98290.69;;;16.40
40199;BMP280;25906;43.536;26.068;2023-04-15T07:15:52;98303.75;;;16.63
40199;BMP280;25906;43.536;26.068;2023-04-15T07:18:38;98306.50;;;16.75
40199;BMP280;25906;43.536;26.068;2023-04-15T07:21:24;98307.03;;;16.79
40199;BMP280;25906;43.536;26.068;2023-04-15T07:24:09;98310.00;;;17.23
40199;BMP280;25906;43.536;26.068;2023-04-15T07:26:55;98321.94;;;17.22
40199;BMP280;25906;43.536;26.068;2023-04-15T07:29:43;98322.41;;;17.68
40199;BMP280;25906;43.536;26.068;2023-04-15T07:32:29;98321.69;;;17.68
40199;BMP280;25906;43.536;26.068;2023-04-15T07:35:14;98325.84;;;17.74
40199;BMP280;25906;43.536;26.068;2023-04-15T07:37:59;98326.91;;;17.99
40199;BMP280;25906;43.536;26.068;2023-04-15T07:40:45;98326.88;;;17.94
40199;BMP280;25906;43.536;26.068;2023-04-15T07:43:31;98330.06;;;17.98
40199;BMP280;25906;43.536;26.068;2023-04-15T07:46:16;98334.72;;;18.08
40199;BMP280;25906;43.536;26.068;2023-04-15T07:49:02;98333.22;;;17.96
40199;BMP280;25906;43.536;26.068;2023-04-15T07:51:47;98335.75;;;18.39
40199;BMP280;25906;43.536;26.068;2023-04-15T07:54:33;98339.91;;;18.51
40199;BMP280;25906;43.536;26.068;2023-04-15T07:57:19;98338.66;;;18.35
40199;BMP280;25906;43.536;26.068;2023-04-15T08:00:04;98351.38;;;18.57
40199;BMP280;25906;43.536;26.068;2023-04-15T08:02:51;98356.75;;;18.57
40199;BMP280;25906;43.536;26.068;2023-04-15T08:05:37;98351.13;;;18.82
40199;BMP280;25906;43.536;26.068;2023-04-15T08:08:23;98356.03;;;18.78
40199;BMP280;25906;43.536;26.068;2023-04-15T08:11:09;98350.66;;;18.78
40199;BMP280;25906;43.536;26.068;2023-04-15T08:13:55;98358.44;;;18.82
40199;BMP280;25906;43.536;26.068;2023-04-15T08:16:40;98350.63;;;19.06
40199;BMP280;25906;43.536;26.068;2023-04-15T08:19:26;98370.16;;;19.07
40199;BMP280;25906;43.536;26.068;2023-04-15T08:22:11;98370.16;;;19.01
40199;BMP280;25906;43.536;26.068;2023-04-15T08:24:57;98374.28;;;19.08
40199;BMP280;25906;43.536;26.068;2023-04-15T08:27:43;98365.97;;;19.33
40199;BMP280;25906;43.536;26.068;2023-04-15T08:30:29;98371.28;;;19.39
40199;BMP280;25906;43.536;26.068;2023-04-15T08:33:14;98371.06;;;19.31
40199;BMP280;25906;43.536;26.068;2023-04-15T08:36:00;98373.44;;;19.52
40199;BMP280;25906;43.536;26.068;2023-04-15T08:38:45;98372.25;;;19.47
40199;BMP280;25906;43.536;26.068;2023-04-15T08:41:45;98370.75;;;19.52
40199;BMP280;25906;43.536;26.068;2023-04-15T08:44:34;98371.75;;;19.54
40199;BMP280;25906;43.536;26.068;2023-04-15T08:47:23;98372.28;;;19.36
40199;BMP280;25906;43.536;26.068;2023-04-15T08:50:11;98376.88;;;19.52
40199;BMP280;25906;43.536;26.068;2023-04-15T08:53:00;98374.50;;;19.26
40199;BMP280;25906;43.536;26.068;2023-04-15T08:55:50;98379.00;;;19.70
40199;BMP280;25906;43.536;26.068;2023-04-15T08:58:36;98384.41;;;19.65
40199;BMP280;25906;43.536;26.068;2023-04-15T09:01:22;98389.94;;;19.83
40199;BMP280;25906;43.536;26.068;2023-04-15T09:04:07;98393.84;;;19.88
40199;BMP280;25906;43.536;26.068;2023-04-15T09:06:53;98398.00;;;19.89
40199;BMP280;25906;43.536;26.068;2023-04-15T09:09:38;98390.41;;;19.87
40199;BMP280;25906;43.536;26.068;2023-04-15T09:12:26;98394.56;;;19.88
40199;BMP280;25906;43.536;26.068;2023-04-15T09:15:11;98394.97;;;20.09
40199;BMP280;25906;43.536;26.068;2023-04-15T09:17:57;98390.31;;;20.10
40199;BMP280;25906;43.536;26.068;2023-04-15T09:20:42;98392.16;;;19.85
40199;BMP280;25906;43.536;26.068;2023-04-15T09:23:28;98394.09;;;19.84
40199;BMP280;25906;43.536;26.068;2023-04-15T09:26:15;98387.25;;;19.83
40199;BMP280;25906;43.536;26.068;2023-04-15T09:29:04;98386.91;;;20.09
40199;BMP280;25906;43.536;26.068;2023-04-15T09:31:51;98390.19;;;19.85
40199;BMP280;25906;43.536;26.068;2023-04-15T09:34:37;98390.72;;;20.30
40199;BMP280;25906;43.536;26.068;2023-04-15T09:37:41;98387.78;;;20.23
40199;BMP280;25906;43.536;26.068;2023-04-15T09:40:39;98383.75;;;19.99
40199;BMP280;25906;43.536;26.068;2023-04-15T09:43:38;98387.09;;;20.22
40199;BMP280;25906;43.536;26.068;2023-04-15T09:46:43;98387.34;;;20.19
40199;BMP280;25906;43.536;26.068;2023-04-15T09:49:29;98382.75;;;20.14
40199;BMP280;25906;43.536;26.068;2023-04-15T09:52:15;98390.38;;;20.45
40199;BMP280;25906;43.536;26.068;2023-04-15T09:55:01;98392.00;;;20.13
40199;BMP280;25906;43.536;26.068;2023-04-15T09:57:46;98389.22;;;19.77
40199;BMP280;25906;43.536;26.068;2023-04-15T10:00:32;98383.94;;;20.18
40199;BMP280;25906;43.536;26.068;2023-04-15T10:03:22;98377.28;;;19.78
40199;BMP280;25906;43.536;26.068;2023-04-15T10:06:09;98378.13;;;20.03
40199;BMP280;25906;43.536;26.068;2023-04-15T10:08:58;98376.81;;;20.56
40199;BMP280;25906;43.536;26.068;2023-04-15T10:11:44;98373.84;;;20.30
40199;BMP280;25906;43.536;26.068;2023-04-15T10:14:31;98376.59;;;20.54
40199;BMP280;25906;43.536;26.068;2023-04-15T10:17:17;98372.78;;;20.38
40199;BMP280;25906;43.536;26.068;2023-04-15T10:20:06;98375.22;;;20.77
40199;BMP280;25906;43.536;26.068;2023-04-15T10:22:53;98375.47;;;20.74
40199;BMP280;25906;43.536;26.068;2023-04-15T10:25:39;98367.94;;;20.66
40199;BMP280;25906;43.536;26.068;2023-04-15T10:28:25;98371.66;;;20.58
40199;BMP280;25906;43.536;26.068;2023-04-15T10:31:12;98366.75;;;20.62
40199;BMP280;25906;43.536;26.068;2023-04-15T10:33:59;98379.09;;;20.11
40199;BMP280;25906;43.536;26.068;2023-04-15T10:36:49;98366.38;;;20.52
40199;BMP280;25906;43.536;26.068;2023-04-15T10:42:32;98369.66;;;20.34
40199;BMP280;25906;43.536;26.068;2023-04-15T10:45:18;98367.44;;;20.98
40199;BMP280;25906;43.536;26.068;2023-04-15T10:48:06;98368.19;;;21.22
40199;BMP280;25906;43.536;26.068;2023-04-15T10:50:56;98374.84;;;21.16
40199;BMP280;25906;43.536;26.068;2023-04-15T10:53:42;98364.25;;;20.99
40199;BMP280;25906;43.536;26.068;2023-04-15T10:56:28;98369.97;;;21.14
40199;BMP280;25906;43.536;26.068;2023-04-15T10:59:14;98377.34;;;20.84
40199;BMP280;25906;43.536;26.068;2023-04-15T11:02:02;98370.97;;;20.17
40199;BMP280;25906;43.536;26.068;2023-04-15T11:04:56;98367.09;;;20.53
40199;BMP280;25906;43.536;26.068;2023-04-15T11:10:49;98379.44;;;20.67
40199;BMP280;25906;43.536;26.068;2023-04-15T11:13:34;98377.22;;;20.36
40199;BMP280;25906;43.536;26.068;2023-04-15T11:16:20;98380.84;;;20.44
40199;BMP280;25906;43.536;26.068;2023-04-15T11:19:05;98373.25;;;20.78
40199;BMP280;25906;43.536;26.068;2023-04-15T11:21:51;98379.16;;;21.24
40199;BMP280;25906;43.536;26.068;2023-04-15T11:24:46;98379.50;;;21.15
40199;BMP280;25906;43.536;26.068;2023-04-15T11:27:32;98378.09;;;21.33
40199;BMP280;25906;43.536;26.068;2023-04-15T11:30:23;98370.06;;;20.49
40199;BMP280;25906;43.536;26.068;2023-04-15T11:33:11;98375.69;;;20.46
40199;BMP280;25906;43.536;26.068;2023-04-15T11:35:58;98380.44;;;20.64
40199;BMP280;25906;43.536;26.068;2023-04-15T11:38:45;98368.66;;;20.97
40199;BMP280;25906;43.536;26.068;2023-04-15T11:41:31;98362.56;;;20.96
40199;BMP280;25906;43.536;26.068;2023-04-15T11:44:17;98354.06;;;20.87
40199;BMP280;25906;43.536;26.068;2023-04-15T11:47:23;98356.06;;;21.10
40199;BMP280;25906;43.536;26.068;2023-04-15T11:50:19;98352.78;;;21.23
40199;BMP280;25906;43.536;26.068;2023-04-15T11:53:06;98354.31;;;21.13
40199;BMP280;25906;43.536;26.068;2023-04-15T11:55:52;98357.78;;;20.54
40199;BMP280;25906;43.536;26.068;2023-04-15T11:58:38;98343.09;;;20.60
40199;BMP280;25906;43.536;26.068;2023-04-15T12:01:34;98348.59;;;20.74
40199;BMP280;25906;43.536;26.068;2023-04-15T12:04:20;98336.69;;;20.63
40199;BMP280;25906;43.536;26.068;2023-04-15T12:07:08;98340.25;;;20.77
40199;BMP280;25906;43.536;26.068;2023-04-15T12:09:54;98332.03;;;20.94
40199;BMP280;25906;43.536;26.068;2023-04-15T12:12:40;98334.63;;;20.75
40199;BMP280;25906;43.536;26.068;2023-04-15T12:15:26;98340.59;;;20.92
40199;BMP280;25906;43.536;26.068;2023-04-15T12:18:18;98336.06;;;21.49
40199;BMP280;25906;43.536;26.068;2023-04-15T12:21:10;98327.47;;;21.50
40199;BMP280;25906;43.536;26.068;2023-04-15T12:23:56;98327.44;;;21.32
40199;BMP280;25906;43.536;26.068;2023-04-15T12:26:45;98331.94;;;20.99
40199;BMP280;25906;43.536;26.068;2023-04-15T12:29:31;98338.69;;;20.57
40199;BMP280;25906;43.536;26.068;2023-04-15T12:32:17;98337.28;;;20.51
40199;BMP280;25906;43.536;26.068;2023-04-15T12:35:07;98337.38;;;20.40
40199;BMP280;25906;43.536;26.068;2023-04-15T12:37:53;98345.13;;;20.14
40199;BMP280;25906;43.536;26.068;2023-04-15T12:40:38;98342.44;;;20.08
40199;BMP280;25906;43.536;26.068;2023-04-15T12:43:24;98341.50;;;20.00
40199;BMP280;25906;43.536;26.068;2023-04-15T12:46:09;98340.56;;;20.33
40199;BMP280;25906;43.536;26.068;2023-04-15T12:48:55;98334.53;;;20.27
40199;BMP280;25906;43.536;26.068;2023-04-15T12:51:41;98337.56;;;20.77
40199;BMP280;25906;43.536;26.068;2023-04-15T12:54:27;98336.66;;;20.69
40199;BMP280;25906;43.536;26.068;2023-04-15T12:57:12;98334.75;;;20.88
40199;BMP280;25906;43.536;26.068;2023-04-15T12:59:58;98332.03;;;20.94
40199;BMP280;25906;43.536;26.068;2023-04-15T13:02:43;98328.91;;;21.51
40199;BMP280;25906;43.536;26.068;2023-04-15T13:05:29;98332.13;;;21.07
40199;BMP280;25906;43.536;26.068;2023-04-15T13:08:14;98333.22;;;21.60
40199;BMP280;25906;43.536;26.068;2023-04-15T13:11:00;98326.09;;;21.62
40199;BMP280;25906;43.536;26.068;2023-04-15T13:13:45;98325.94;;;21.92
40199;BMP280;25906;43.536;26.068;2023-04-15T13:16:31;98328.34;;;21.96
40199;BMP280;25906;43.536;26.068;2023-04-15T13:19:17;98318.22;;;21.46
40199;BMP280;25906;43.536;26.068;2023-04-15T13:22:02;98324.56;;;21.48
40199;BMP280;25906;43.536;26.068;2023-04-15T13:24:47;98310.16;;;21.03
40199;BMP280;25906;43.536;26.068;2023-04-15T13:27:33;98313.09;;;20.51
40199;BMP280;25906;43.536;26.068;2023-04-15T13:30:19;98317.22;;;20.17
40199;BMP280;25906;43.536;26.068;2023-04-15T13:33:05;98322.31;;;20.26
40199;BMP280;25906;43.536;26.068;2023-04-15T13:35:50;98325.19;;;20.33
40199;BMP280;25906;43.536;26.068;2023-04-15T13:38:35;98324.09;;;20.53
40199;BMP280;25906;43.536;26.068;2023-04-15T13:41:21;98320.09;;;20.30
40199;BMP280;25906;43.536;26.068;2023-04-15T13:44:06;98321.13;;;20.21
40199;BMP280;25906;43.536;26.068;2023-04-15T13:46:52;98325.84;;;20.45
40199;BMP280;25906;43.536;26.068;2023-04-15T13:49:37;98326.31;;;20.49
40199;BMP280;25906;43.536;26.068;2023-04-15T13:52:22;98328.91;;;20.60
40199;BMP280;25906;43.536;26.068;2023-04-15T13:55:08;98322.28;;;20.31
40199;BMP280;25906;43.536;26.068;2023-04-15T13:57:54;98325.53;;;20.19
40199;BMP280;25906;43.536;26.068;2023-04-15T14:00:40;98325.13;;;20.39
40199;BMP280;25906;43.536;26.068;2023-04-15T14:03:26;98323.38;;;20.12
40199;BMP280;25906;43.536;26.068;2023-04-15T14:06:11;98323.00;;;20.32
40199;BMP280;25906;43.536;26.068;2023-04-15T14:08:56;98333.44;;;20.05
40199;BMP280;25906;43.536;26.068;2023-04-15T14:11:42;98336.09;;;20.11
40199;BMP280;25906;43.536;26.068;2023-04-15T14:14:27;98337.81;;;20.08
40199;BMP280;25906;43.536;26.068;2023-04-15T14:17:13;98334.03;;;20.28
40199;BMP280;25906;43.536;26.068;2023-04-15T14:19:58;98345.59;;;20.12
40199;BMP280;25906;43.536;26.068;2023-04-15T14:22:43;98347.91;;;19.91
40199;BMP280;25906;43.536;26.068;2023-04-15T14:25:29;98345.69;;;19.95
40199;BMP280;25906;43.536;26.068;2023-04-15T14:28:15;98352.44;;;20.07
40199;BMP280;25906;43.536;26.068;2023-04-15T14:31:00;98347.44;;;19.93
40199;BMP280;25906;43.536;26.068;2023-04-15T14:33:45;98349.28;;;19.57
40199;BMP280;25906;43.536;26.068;2023-04-15T14:36:31;98356.16;;;19.47
40199;BMP280;25906;43.536;26.068;2023-04-15T14:39:16;98356.19;;;19.25
40199;BMP280;25906;43.536;26.068;2023-04-15T14:42:02;98363.03;;;19.26
40199;BMP280;25906;43.536;26.068;2023-04-15T14:44:47;98365.97;;;19.22
40199;BMP280;25906;43.536;26.068;2023-04-15T14:47:32;98368.44;;;19.15
40199;BMP280;25906;43.536;26.068;2023-04-15T14:50:18;98365.28;;;19.11
40199;BMP280;25906;43.536;26.068;2023-04-15T14:53:03;98363.31;;;19.00
40199;BMP280;25906;43.536;26.068;2023-04-15T14:55:53;98361.38;;;19.06
40199;BMP280;25906;43.536;26.068;2023-04-15T14:58:38;98361.13;;;19.10
40199;BMP280;25906;43.536;26.068;2023-04-15T15:01:24;98364.06;;;19.01
40199;BMP280;25906;43.536;26.068;2023-04-15T15:04:10;98363.56;;;18.91
40199;BMP280;25906;43.536;26.068;2023-04-15T15:06:55;98366.25;;;18.69
40199;BMP280;25906;43.536;26.068;2023-04-15T15:09:41;98367.44;;;18.51
40199;BMP280;25906;43.536;26.068;2023-04-15T15:12:26;98363.53;;;18.41
40199;BMP280;25906;43.536;26.068;2023-04-15T15:15:12;98356.91;;;18.25
40199;BMP280;25906;43.536;26.068;2023-04-15T15:17:57;98355.69;;;18.15
40199;BMP280;25906;43.536;26.068;2023-04-15T15:20:43;98358.88;;;18.19
40199;BMP280;25906;43.536;26.068;2023-04-15T15:23:28;98365.91;;;18.17
40199;BMP280;25906;43.536;26.068;2023-04-15T15:26:13;98357.66;;;18.26
40199;BMP280;25906;43.536;26.068;2023-04-15T15:28:59;98360.31;;;18.20
40199;BMP280;25906;43.536;26.068;2023-04-15T15:31:45;98363.47;;;18.08
40199;BMP280;25906;43.536;26.068;2023-04-15T15:34:30;98359.56;;;18.09
40199;BMP280;25906;43.536;26.068;2023-04-15T15:37:16;98363.94;;;18.12
40199;BMP280;25906;43.536;26.068;2023-04-15T15:40:06;98370.22;;;17.98
40199;BMP280;25906;43.536;26.068;2023-04-15T15:42:51;98356.53;;;17.85
40199;BMP280;25906;43.536;26.068;2023-04-15T15:45:37;98351.63;;;17.77
40199;BMP280;25906;43.536;26.068;2023-04-15T15:48:23;98350.38;;;17.67
40199;BMP280;25906;43.536;26.068;2023-04-15T15:51:08;98351.28;;;17.53